Time;durP1;ratioP1;P1;durP2;ratioP2;P2;SDS_P1;SDS_P2;PMS_P1;PMS_P2;Temp;Humidity;BMP_temperature;BMP_pressure;BME280_temperature;BME280_humidity;BME280_pressure;Samples;Min_cycle;Max_cycle;Signal;HPM_P1;HPM_P2
2023/10/10 00:00:24;;;;;;;21.55;15.10;;;;;;;10.67;58.77;96070.63;4891465;29;20557;-78
2023/10/10 00:02:51;;;;;;;29.77;15.15;;;;;;;10.62;58.68;96066.59;4905183;29;20070;-79
2023/10/10 00:05:18;;;;;;;25.70;14.65;;;;;;;10.58;59.18;96073.25;4920809;29;20044;-79
2023/10/10 00:07:43;;;;;;;28.58;16.58;;;;;;;10.69;59.04;96081.91;4943643;29;20093;-78
2023/10/10 00:10:13;;;;;;;28.13;16.63;;;;;;;10.68;59.11;96073.09;4921656;29;20064;-78
2023/10/10 00:12:39;;;;;;;28.55;15.98;;;;;;;10.73;59.18;96078.75;4906187;29;20372;-78
2023/10/10 00:15:05;;;;;;;27.10;16.38;;;;;;;10.74;59.24;96071.59;4901826;29;20036;-78
2023/10/10 00:17:34;;;;;;;27.38;17.20;;;;;;;10.88;58.79;96076.25;4922373;29;20123;-78
2023/10/10 00:20:16;;;;;;;27.70;17.80;;;;;;;10.84;59.18;96066.94;4943260;29;20073;-78
2023/10/10 00:22:43;;;;;;;25.05;16.20;;;;;;;10.84;58.83;96064.25;4919353;29;20428;-78
2023/10/10 00:25:12;;;;;;;27.77;16.75;;;;;;;10.77;59.52;96070.44;4910550;29;20162;-78
2023/10/10 00:27:39;;;;;;;27.15;16.63;;;;;;;10.61;59.53;96072.13;4918882;29;20067;-78
2023/10/10 00:30:06;;;;;;;25.20;16.85;;;;;;;10.83;58.80;96067.94;4917949;29;20093;-79
2023/10/10 00:32:35;;;;;;;26.90;17.15;;;;;;;10.83;59.23;96065.28;4915674;29;20353;-78
2023/10/10 00:35:06;;;;;;;26.38;17.42;;;;;;;10.78;59.21;96075.56;4913802;29;20066;-78
2023/10/10 00:37:34;;;;;;;27.38;16.73;;;;;;;10.68;59.33;96064.28;4902936;29;20076;-78
2023/10/10 00:40:10;;;;;;;25.83;17.00;;;;;;;10.70;59.17;96059.59;4927250;29;20095;-78
2023/10/10 00:42:40;;;;;;;24.10;16.33;;;;;;;10.61;59.21;96059.63;4920267;29;20062;-79
2023/10/10 00:45:09;;;;;;;34.70;17.55;;;;;;;10.64;59.25;96062.97;4920236;29;20045;-78
2023/10/10 00:47:43;;;;;;;31.08;18.38;;;;;;;10.57;59.37;96057.47;4905221;29;20100;-78
2023/10/10 00:50:16;;;;;;;31.50;18.38;;;;;;;10.58;59.48;96057.28;4926192;29;20142;-80
2023/10/10 00:52:48;;;;;;;28.83;17.60;;;;;;;10.49;59.71;96051.16;4927313;29;20532;-78
2023/10/10 00:55:13;;;;;;;30.90;18.00;;;;;;;10.54;59.34;96052.47;4905252;29;20133;-78
2023/10/10 00:57:40;;;;;;;25.95;17.63;;;;;;;10.28;60.08;96056.97;4917062;29;20053;-79
2023/10/10 01:00:14;;;;;;;27.77;17.02;;;;;;;10.23;59.84;96052.13;4950418;28;20092;-78
2023/10/10 01:02:39;;;;;;;26.65;17.80;;;;;;;10.12;60.42;96051.59;4929391;29;20079;-80
2023/10/10 01:05:12;;;;;;;32.83;17.90;;;;;;;10.08;60.98;96046.66;4951256;28;20053;-79
2023/10/10 01:07:38;;;;;;;34.97;18.52;;;;;;;9.85;61.70;96047.22;4934477;29;20102;-79
2023/10/10 01:10:11;;;;;;;30.35;19.63;;;;;;;10.05;61.23;96043.44;4886539;29;20052;-79
2023/10/10 01:12:39;;;;;;;29.83;18.30;;;;;;;10.04;61.20;96055.91;4931192;29;20365;-78
2023/10/10 01:15:48;;;;;;;29.70;17.88;;;;;;;9.96;61.22;96046.09;4931182;29;20073;-78
2023/10/10 01:17:59;;;;;;;30.98;18.45;;;;;;;9.91;61.24;96039.59;4933288;29;20260;-79
2023/10/10 01:20:34;;;;;;;31.27;18.05;;;;;;;10.13;60.45;96040.00;4905556;29;20425;-79
2023/10/10 01:23:00;;;;;;;33.05;18.27;;;;;;;10.31;60.32;96037.19;4924795;29;20085;-78
2023/10/10 01:28:02;;;;;;;30.58;18.25;;;;;;;10.54;59.06;96032.00;4928282;29;20087;-78
2023/10/10 01:33:14;;;;;;;27.65;16.75;;;;;;;10.47;58.85;96023.00;4922233;29;20154;-78
2023/10/10 01:35:43;;;;;;;25.48;16.77;;;;;;;10.52;58.59;96019.84;4936725;29;20079;-78
2023/10/10 01:38:27;;;;;;;28.77;15.95;;;;;;;10.63;57.74;96022.19;4936100;29;20094;-78
2023/10/10 01:40:55;;;;;;;26.27;16.33;;;;;;;10.62;57.99;96017.88;4931080;29;20045;-78
2023/10/10 01:43:21;;;;;;;;;;;;;;;10.62;57.77;96021.34;4923239;29;20070;-78
2023/10/10 01:46:00;;;;;;;28.52;16.35;;;;;;;10.55;57.95;96015.03;4917091;29;19918;-78
2023/10/10 01:48:25;;;;;;;28.83;17.20;;;;;;;10.56;58.03;96010.53;4932991;29;20039;-78
2023/10/10 01:50:51;;;;;;;25.63;15.40;;;;;;;10.55;58.06;96012.38;4929280;29;20071;-79
2023/10/10 01:53:16;;;;;;;24.75;15.82;;;;;;;10.40;58.60;96016.72;4932234;29;20052;-79
2023/10/10 01:55:42;;;;;;;29.15;17.30;;;;;;;10.32;59.15;96017.53;4921413;29;20075;-79
2023/10/10 01:58:11;;;;;;;26.58;16.98;;;;;;;10.35;59.08;96019.88;4914531;29;20446;-81
2023/10/10 02:00:37;;;;;;;32.83;16.75;;;;;;;10.26;59.06;96015.56;4899679;29;20652;-79
2023/10/10 02:03:03;;;;;;;26.77;17.10;;;;;;;10.11;60.02;96010.88;4941555;29;20102;-80
2023/10/10 02:07:57;;;;;;;29.67;16.70;;;;;;;9.97;60.98;96015.81;4936392;29;20145;-79
2023/10/10 02:10:26;;;;;;;26.25;16.85;;;;;;;9.98;60.96;96016.66;4920133;29;20818;-79
2023/10/10 02:12:52;;;;;;;27.73;16.75;;;;;;;9.91;61.27;96008.50;4923194;29;20044;-80
2023/10/10 02:15:26;;;;;;;27.85;18.23;;;;;;;9.91;61.75;96008.50;4903800;29;20067;-79
2023/10/10 02:17:54;;;;;;;28.83;17.48;;;;;;;9.92;61.83;96006.66;4907709;29;20109;-80
2023/10/10 02:22:51;;;;;;;32.15;18.60;;;;;;;9.91;62.24;96013.00;4932409;29;20755;-78
2023/10/10 02:27:54;;;;;;;34.70;17.45;;;;;;;9.88;62.46;96010.66;4937422;29;20107;-79
2023/10/10 02:30:34;;;;;;;32.47;19.63;;;;;;;9.89;62.74;96005.19;4931740;29;20082;-79
2023/10/10 02:33:24;;;;;;;37.38;19.80;;;;;;;9.84;63.38;96005.69;4918420;29;20042;-78
2023/10/10 02:38:22;;;;;;;37.67;20.75;;;;;;;9.90;63.26;96003.34;4930553;29;20078;-80
2023/10/10 02:40:55;;;;;;;29.83;19.55;;;;;;;9.91;63.25;96002.34;4908672;29;20110;-78
2023/10/10 02:43:33;;;;;;;40.55;22.90;;;;;;;9.97;63.26;95997.19;4904730;29;20074;-79
2023/10/10 02:45:59;;;;;;;;;;;;;;;9.99;63.54;95999.69;4925684;29;20061;-78
2023/10/10 02:48:27;;;;;;;41.08;22.25;;;;;;;9.96;64.17;95998.19;4942116;29;19985;-80
2023/10/10 02:50:52;;;;;;;30.73;20.77;;;;;;;10.07;63.45;95994.41;4920139;29;20078;-79
2023/10/10 02:53:22;;;;;;;40.70;22.33;;;;;;;10.19;63.19;95999.41;4920248;29;20060;-79
2023/10/10 02:55:50;;;;;;;38.80;22.50;;;;;;;10.32;62.38;95999.75;4914676;29;20381;-79
2023/10/10 02:58:22;;;;;;;35.17;21.80;;;;;;;10.49;61.47;95994.41;4943444;29;20433;-80
2023/10/10 03:00:52;;;;;;;39.95;23.63;;;;;;;10.53;61.47;95997.56;4934467;29;20183;-80
2023/10/10 03:03:20;;;;;;;36.20;22.35;;;;;;;10.41;61.87;95999.75;4903998;29;20134;-78
2023/10/10 03:05:54;;;;;;;39.78;24.42;;;;;;;10.43;62.47;96003.06;4921696;29;20086;-79
2023/10/10 03:11:00;;;;;;;40.28;23.15;;;;;;;10.45;62.63;95995.75;4925830;29;20579;-78
2023/10/10 03:13:28;;;;;;;37.08;21.55;;;;;;;10.54;62.40;95999.25;4943161;29;20049;-79
2023/10/10 03:15:56;;;;;;;35.50;19.90;;;;;;;10.77;60.50;95999.34;4918935;29;21007;-78
2023/10/10 03:18:29;;;;;;;36.83;23.30;;;;;;;10.74;61.01;96000.53;4936871;29;20419;-80
2023/10/10 03:21:12;;;;;;;39.60;23.73;;;;;;;10.90;59.94;96003.31;4902389;29;20172;-80
2023/10/10 03:23:56;;;;;;;43.78;25.27;;;;;;;10.77;61.33;95998.53;4935130;29;20070;-79
2023/10/10 03:29:21;;;;;;;43.33;24.73;;;;;;;10.83;60.91;96001.34;4889164;29;20056;-78
2023/10/10 03:32:19;;;;;;;40.80;23.83;;;;;;;10.86;60.74;95993.03;4911061;29;20131;-79
2023/10/10 03:34:45;;;;;;;47.20;27.10;;;;;;;10.85;61.33;95991.34;4927543;29;20073;-80
2023/10/10 03:39:55;;;;;;;37.58;22.92;;;;;;;10.98;60.42;95987.34;4933947;29;20042;-78
2023/10/10 05:24:00;;;;;;;30.90;12.52;;;;;;;11.28;54.25;95992.09;4935483;29;20046;-78
2023/10/10 05:26:30;;;;;;;23.67;13.23;;;;;;;11.22;54.22;95988.28;4915782;29;20412;-80
2023/10/10 05:28:57;;;;;;;19.65;12.55;;;;;;;11.19;54.06;95985.94;4934585;29;20042;-80
2023/10/10 05:31:23;;;;;;;14.57;9.93;;;;;;;11.08;53.92;95990.59;4927691;29;20520;-79
2023/10/10 05:33:48;;;;;;;13.60;9.75;;;;;;;10.99;54.02;95987.13;4932876;29;20041;-80
2023/10/10 05:36:18;;;;;;;16.85;10.93;;;;;;;10.96;53.81;95990.16;4913251;29;20431;-79
2023/10/10 05:38:44;;;;;;;16.83;11.15;;;;;;;10.90;54.23;95982.00;4920438;29;20173;-80
2023/10/10 05:41:10;;;;;;;20.87;13.43;;;;;;;10.82;54.73;95989.03;4926360;29;20055;-80
2023/10/10 05:43:36;;;;;;;19.40;12.63;;;;;;;10.85;55.00;95995.84;4909506;29;20036;-79
2023/10/10 05:46:04;;;;;;;20.95;12.95;;;;;;;10.83;54.35;95990.69;4914558;29;20157;-79
2023/10/10 05:48:31;;;;;;;;;;;;;;;10.73;52.89;95998.88;4926740;29;20046;-78
2023/10/10 05:50:57;;;;;;;17.08;12.00;;;;;;;10.77;54.36;95995.88;4905889;29;19961;-80
2023/10/10 05:53:24;;;;;;;19.02;12.98;;;;;;;10.78;54.18;95995.69;4927957;28;20500;-79
2023/10/10 05:55:53;;;;;;;20.73;14.73;;;;;;;10.73;53.69;95995.38;4907054;29;20051;-78
2023/10/10 05:58:19;;;;;;;21.30;12.10;;;;;;;10.69;54.07;95994.03;4914255;29;20646;-80
2023/10/10 06:00:45;;;;;;;18.05;12.90;;;;;;;10.67;53.76;95994.22;4931026;29;20044;-80
2023/10/10 06:03:16;;;;;;;19.02;13.13;;;;;;;10.63;54.06;95998.22;4913429;29;20070;-79
2023/10/10 06:05:45;;;;;;;21.17;13.95;;;;;;;10.69;54.14;95996.72;4903288;29;20035;-80
2023/10/10 06:08:11;;;;;;;19.02;11.98;;;;;;;10.72;53.91;95991.88;4928344;29;20132;-78
2023/10/10 06:10:37;;;;;;;18.73;12.50;;;;;;;10.79;54.08;95996.53;4915183;29;20486;-80
2023/10/10 06:13:06;;;;;;;17.95;12.32;;;;;;;10.84;54.35;96000.34;4924538;29;20036;-80
2023/10/10 06:15:35;;;;;;;20.10;13.13;;;;;;;10.90;54.00;96003.31;4930169;29;20641;-79
2023/10/10 06:18:18;;;;;;;18.70;13.80;;;;;;;10.93;53.70;96009.16;4923668;29;20036;-70
2023/10/10 06:20:44;;;;;;;16.98;12.05;;;;;;;11.03;53.98;96018.75;4900052;29;20031;-70
2023/10/10 06:23:18;;;;;;;17.27;11.93;;;;;;;11.08;54.12;96011.94;4912682;29;20075;-70
2023/10/10 06:25:43;;;;;;;20.30;15.07;;;;;;;11.19;53.86;96015.25;4919199;29;20323;-70
2023/10/10 06:28:26;;;;;;;19.55;13.48;;;;;;;11.23;53.76;96016.56;4925445;29;20066;-70
2023/10/10 06:30:55;;;;;;;20.38;13.77;;;;;;;11.31;53.85;96021.03;4917647;29;20052;-70
2023/10/10 06:33:27;;;;;;;24.73;14.65;;;;;;;11.41;53.53;96021.66;4922320;29;20051;-70
2023/10/10 06:41:36;;;;;;;22.05;15.35;;;;;;;11.70;52.95;96019.38;4932747;29;20046;-70
2023/10/10 06:44:01;;;;;;;23.30;17.23;;;;;;;11.80;52.60;96022.63;4920455;29;20082;-70
2023/10/10 06:46:32;;;;;;;23.88;16.02;;;;;;;11.88;52.85;96019.94;4919282;29;20524;-70
2023/10/10 06:49:04;;;;;;;23.02;16.77;;;;;;;12.05;52.72;96019.81;4915119;29;20042;-70
2023/10/10 06:51:30;;;;;;;23.95;16.52;;;;;;;12.23;52.57;96018.69;4934428;29;20405;-70
2023/10/10 06:53:56;;;;;;;25.50;17.63;;;;;;;12.37;52.55;96017.09;4917419;29;20031;-70
2023/10/10 06:56:44;;;;;;;26.48;18.48;;;;;;;12.53;52.10;96018.78;4918018;29;20091;-70
2023/10/10 06:59:16;;;;;;;26.85;18.60;;;;;;;12.66;51.71;96013.69;4922678;29;20081;-70
2023/10/10 07:01:45;;;;;;;26.58;19.13;;;;;;;12.75;51.74;96017.09;4917760;29;20672;-70
2023/10/10 07:04:11;;;;;;;24.95;19.13;;;;;;;12.91;51.52;96013.44;4921456;29;20051;-70
2023/10/10 07:06:37;;;;;;;30.45;19.05;;;;;;;13.01;51.07;96013.19;4926779;29;20708;-70
2023/10/10 07:09:14;;;;;;;25.35;18.45;;;;;;;13.16;50.75;96009.69;4920676;29;20047;-70
2023/10/10 07:11:43;;;;;;;28.50;19.60;;;;;;;13.29;50.50;96017.03;4928823;29;20117;-70
2023/10/10 07:14:10;;;;;;;27.15;19.98;;;;;;;13.41;49.81;96017.41;4929962;29;20039;-70
2023/10/10 07:16:36;;;;;;;32.97;20.13;;;;;;;13.55;49.95;96015.72;4933273;29;20040;-70
2023/10/10 07:19:19;;;;;;;25.38;18.83;;;;;;;13.74;49.63;96018.81;4925090;29;20059;-70
2023/10/10 07:21:50;;;;;;;25.73;18.88;;;;;;;13.91;49.73;96014.09;4918649;29;20020;-70
2023/10/10 07:24:16;;;;;;;23.48;16.63;;;;;;;14.10;49.43;96012.63;4921349;29;20039;-70
2023/10/10 07:26:42;;;;;;;23.77;17.05;;;;;;;14.26;49.34;96005.38;4926465;29;20608;-70
2023/10/10 07:29:27;;;;;;;24.20;14.40;;;;;;;14.33;48.59;96006.25;4925667;29;20031;-70
2023/10/10 07:32:07;;;;;;;19.75;12.57;;;;;;;14.39;47.44;96013.53;4927158;29;20672;-70
2023/10/10 07:34:35;;;;;;;17.75;11.60;;;;;;;14.63;47.77;96016.81;4924479;29;20035;-70
2023/10/10 07:37:09;;;;;;;15.80;10.00;;;;;;;14.75;45.92;96017.13;4931358;29;20039;-70
2023/10/10 07:39:55;;;;;;;16.63;8.50;;;;;;;14.34;46.55;96013.28;4929653;29;20079;-70
2023/10/10 07:42:27;;;;;;;20.10;11.88;;;;;;;14.41;46.66;96008.81;4927439;29;20043;-70
2023/10/10 07:44:55;;;;;;;29.73;20.10;;;;;;;14.68;46.54;96018.91;4930964;29;20050;-70
2023/10/10 07:47:25;;;;;;;31.15;23.15;;;;;;;14.97;45.73;96011.72;4927917;29;20039;-70
2023/10/10 07:50:08;;;;;;;28.38;23.13;;;;;;;15.19;45.23;96015.16;4928577;29;20057;-70
2023/10/10 07:52:35;;;;;;;32.35;24.30;;;;;;;15.41;45.08;96012.38;4919433;29;20039;-70
2023/10/10 07:55:04;;;;;;;28.02;22.15;;;;;;;15.71;44.20;96006.72;4929545;29;20067;-70
2023/10/10 07:57:46;;;;;;;31.02;23.85;;;;;;;15.88;43.82;96007.19;4911266;29;20062;-70
2023/10/10 08:00:17;;;;;;;28.50;21.75;;;;;;;16.14;43.79;96015.50;4912101;29;20098;-69
2023/10/10 08:02:49;;;;;;;30.60;23.00;;;;;;;16.35;43.13;96003.00;4925801;29;20043;-70
2023/10/10 08:05:19;;;;;;;25.42;18.27;;;;;;;16.64;43.14;96011.66;4926984;29;20099;-70
2023/10/10 08:07:45;;;;;;;17.13;11.85;;;;;;;16.73;43.63;96007.72;4930896;29;20121;-70
2023/10/10 08:10:16;;;;;;;25.08;19.75;;;;;;;16.60;42.96;96010.44;4928473;29;20716;-70
2023/10/10 08:12:42;;;;;;;27.60;15.85;;;;;;;16.80;42.39;96010.44;4922038;29;20093;-70
2023/10/10 08:15:19;;;;;;;16.80;7.60;;;;;;;16.72;43.04;96008.75;4927186;29;20047;-70
2023/10/10 08:17:54;;;;;;;14.53;7.90;;;;;;;16.80;43.01;96002.34;4924223;29;20888;-70
2023/10/10 08:23:03;;;;;;;22.92;14.70;;;;;;;16.80;42.41;96006.91;4926022;29;20047;-70
2023/10/10 08:25:28;;;;;;;12.88;7.32;;;;;;;17.20;42.78;96006.84;4933079;29;20485;-70
2023/10/10 08:27:55;;;;;;;15.68;8.45;;;;;;;16.56;42.27;96006.50;4917736;29;20047;-70
2023/10/10 08:30:25;;;;;;;15.75;8.98;;;;;;;17.14;42.04;96013.88;4921944;29;20109;-69
2023/10/10 08:32:54;;;;;;;15.82;8.60;;;;;;;16.54;43.20;96019.31;4912491;29;20479;-70
2023/10/10 08:35:21;;;;;;;17.55;10.38;;;;;;;16.78;43.26;96017.84;4918334;29;20050;-70
2023/10/10 08:37:46;;;;;;;17.90;11.53;;;;;;;17.16;42.67;96005.63;4913339;29;20094;-69
2023/10/10 08:40:19;;;;;;;14.18;7.25;;;;;;;17.13;43.57;96014.09;4919891;29;20816;-70
2023/10/10 08:42:46;;;;;;;15.77;8.60;;;;;;;16.93;42.87;96012.25;4926062;29;20043;-70
2023/10/10 08:45:22;;;;;;;16.87;8.87;;;;;;;17.38;42.40;96003.47;4914977;29;20467;-69
2023/10/10 08:47:50;;;;;;;18.50;11.48;;;;;;;17.18;43.10;95998.19;4876333;29;20035;-70
2023/10/10 08:50:16;;;;;;;15.27;8.52;;;;;;;17.53;41.58;95997.84;4892392;29;20074;-79
2023/10/10 08:52:42;;;;;;;13.25;6.95;;;;;;;17.90;40.86;95989.22;4911955;29;20046;-79
2023/10/10 08:55:10;;;;;;;17.58;12.25;;;;;;;17.94;40.26;95988.78;4928886;28;20756;-79
2023/10/10 08:57:38;;;;;;;13.82;7.28;;;;;;;17.41;42.10;95986.91;4913758;29;20036;-79
2023/10/10 09:00:06;;;;;;;16.10;8.10;;;;;;;16.97;42.84;95985.78;4871520;29;20127;-79
2023/10/10 09:02:33;;;;;;;15.00;6.20;;;;;;;17.64;42.02;95977.50;4925633;29;20039;-79
2023/10/10 09:04:58;;;;;;;10.55;6.13;;;;;;;17.79;40.96;95976.41;4924654;29;20090;-79
2023/10/10 09:07:30;;;;;;;9.48;5.72;;;;;;;17.60;40.52;95978.13;4913988;29;20051;-79
2023/10/10 09:10:04;;;;;;;11.10;4.95;;;;;;;18.14;39.74;95977.84;4916158;28;20039;-79
2023/10/10 09:12:34;;;;;;;13.73;4.90;;;;;;;18.47;39.15;95971.41;4935989;29;20040;-79
2023/10/10 09:15:11;;;;;;;11.23;5.10;;;;;;;18.42;39.76;95965.81;4920440;29;20054;-79
2023/10/10 09:17:40;;;;;;;10.85;5.65;;;;;;;18.54;39.41;95965.94;4903198;29;20027;-79
2023/10/10 09:20:22;;;;;;;11.88;4.82;;;;;;;18.77;39.19;95969.94;4909056;29;20047;-79
2023/10/10 09:22:58;;;;;;;9.35;5.32;;;;;;;18.34;39.33;95972.34;4913694;29;20031;-79
2023/10/10 09:25:48;;;;;;;11.57;4.47;;;;;;;18.82;37.84;95983.56;4927791;29;20047;-79
2023/10/10 09:28:16;;;;;;;9.10;4.60;;;;;;;19.44;36.36;95979.19;4934529;28;20047;-80
2023/10/10 09:30:49;;;;;;;12.52;5.07;;;;;;;18.48;38.01;95981.13;4928923;29;20043;-79
2023/10/10 09:33:28;;;;;;;10.38;5.35;;;;;;;17.48;39.94;95981.53;4915986;29;20701;-79
2023/10/10 09:36:15;;;;;;;11.02;5.20;;;;;;;17.15;41.26;95977.91;4902817;29;20041;-79
2023/10/10 09:38:45;;;;;;;10.65;4.85;;;;;;;18.52;39.12;95978.81;4927912;29;20039;-79
2023/10/10 09:41:14;;;;;;;11.88;5.35;;;;;;;18.33;38.76;95977.94;4915847;29;20558;-79
2023/10/10 09:49:44;;;;;;;10.60;5.43;;;;;;;18.21;38.96;95984.03;4916592;29;20539;-79
2023/10/10 09:58:17;;;;;;;11.70;5.43;;;;;;;19.71;35.15;95981.56;4879344;29;20039;-79
2023/10/10 10:05:58;;;;;;;8.30;4.93;;;;;;;19.41;37.00;95975.06;4913254;29;20063;-79
2023/10/10 10:08:37;;;;;;;13.32;5.45;;;;;;;18.77;37.45;95973.44;4905003;29;20034;-79
2023/10/10 10:11:25;;;;;;;8.10;4.72;;;;;;;19.03;37.30;95973.38;4894465;29;20040;-79
2023/10/10 10:14:17;;;;;;;14.23;5.47;;;;;;;18.61;37.51;95976.69;4910058;29;20515;-79
2023/10/10 10:17:18;;;;;;;8.55;4.18;;;;;;;18.38;38.10;95983.50;4917150;29;20061;-79
2023/10/10 10:19:45;;;;;;;7.97;4.38;;;;;;;19.46;36.03;95980.63;4924786;29;20054;-79
2023/10/10 10:22:17;;;;;;;9.40;4.20;;;;;;;20.38;34.59;95982.50;4895739;29;20039;-79
2023/10/10 10:24:44;;;;;;;9.48;4.30;;;;;;;20.73;33.51;95983.63;4935759;29;20286;-79
2023/10/10 10:29:55;;;;;;;10.77;4.05;;;;;;;20.97;33.42;95989.84;4903385;29;20605;-78
2023/10/10 10:32:24;;;;;;;8.10;3.92;;;;;;;21.05;33.17;95988.69;4898463;29;20398;-79
2023/10/10 10:34:56;;;;;;;7.93;3.55;;;;;;;21.12;33.97;95983.94;4883955;29;20214;-79
2023/10/10 10:37:23;;;;;;;8.43;4.25;;;;;;;21.25;33.18;95979.38;4915722;29;20147;-79
2023/10/10 10:42:42;;;;;;;10.07;4.25;;;;;;;18.02;38.64;95975.84;4902939;29;21574;-79
2023/10/10 10:45:24;;;;;;;9.70;4.03;;;;;;;20.06;35.16;95974.69;4884331;29;20031;-79
2023/10/10 10:47:54;;;;;;;8.50;4.20;;;;;;;20.54;34.80;95981.00;4911368;29;20028;-79
2023/10/10 10:50:40;;;;;;;9.43;3.85;;;;;;;20.71;32.39;95974.94;4905458;29;20039;-79
2023/10/10 10:53:08;;;;;;;7.13;4.10;;;;;;;20.65;33.38;95975.84;4916962;29;20773;-79
2023/10/10 10:55:39;;;;;;;10.55;4.35;;;;;;;20.61;32.67;95979.00;4899399;29;20051;-79
2023/10/10 10:58:20;;;;;;;9.95;3.97;;;;;;;20.70;32.28;95974.09;4883098;29;20107;-78
2023/10/10 11:01:00;;;;;;;9.50;4.28;;;;;;;20.60;32.48;95977.34;4897561;29;20063;-79
2023/10/10 11:03:36;;;;;;;6.10;3.65;;;;;;;20.75;32.12;95976.09;4901711;29;20152;-78
2023/10/10 11:06:08;;;;;;;9.25;3.95;;;;;;;20.03;32.32;95981.38;4911224;29;20570;-78
2023/10/10 11:08:51;;;;;;;9.15;4.00;;;;;;;20.32;32.32;95981.56;4911939;29;20107;-77
2023/10/10 11:14:19;;;;;;;13.60;4.22;;;;;;;20.39;32.96;95973.34;4911321;29;20626;-78
2023/10/10 11:16:56;;;;;;;9.68;4.10;;;;;;;20.55;32.55;95969.13;4887915;29;20034;-80
2023/10/10 11:21:50;;;;;;;8.77;4.30;;;;;;;19.90;33.24;95970.72;4907301;29;20090;-79
2023/10/10 11:24:23;;;;;;;9.50;3.70;;;;;;;19.76;33.50;95976.31;4934613;29;20043;-77
2023/10/10 11:26:49;;;;;;;11.68;4.38;;;;;;;19.83;33.70;95974.34;4900625;29;20052;-78
2023/10/10 11:29:29;;;;;;;9.20;4.38;;;;;;;19.13;34.31;95975.56;4900603;29;20034;-81
2023/10/10 11:32:06;;;;;;;9.95;3.60;;;;;;;20.04;33.51;95969.50;4918550;29;20271;-77
2023/10/10 11:34:44;;;;;;;7.03;3.38;;;;;;;20.35;32.61;95972.16;4915927;29;20694;-77
2023/10/10 11:37:26;;;;;;;11.00;4.13;;;;;;;20.54;32.58;95970.19;4887664;29;20035;-78
2023/10/10 11:43:04;;;;;;;9.20;3.70;;;;;;;20.65;32.23;95960.47;4915778;29;20562;-79
2023/10/10 11:45:30;;;;;;;8.05;4.20;;;;;;;19.35;33.95;95961.66;4888759;29;20040;-78
2023/10/10 11:48:05;;;;;;;9.38;3.80;;;;;;;20.45;32.99;95955.34;4873518;29;20036;-78
2023/10/10 11:50:56;;;;;;;11.18;3.95;;;;;;;20.48;33.04;95949.47;4900738;29;20291;-79
2023/10/10 11:53:27;;;;;;;9.00;3.88;;;;;;;20.38;32.35;95951.94;4907626;29;20741;-80
2023/10/10 11:56:01;;;;;;;10.32;3.88;;;;;;;20.58;32.14;95941.63;4905965;29;20111;-78
2023/10/10 11:58:35;;;;;;;8.18;3.67;;;;;;;20.79;31.73;95949.41;4927710;29;20080;-78
2023/10/10 12:01:05;;;;;;;6.93;3.50;;;;;;;20.71;32.03;95937.06;4932994;29;20163;-79
2023/10/10 12:06:14;;;;;;;9.68;3.70;;;;;;;21.36;30.82;95937.09;5393468;23;20040;-76
2023/10/10 12:08:48;;;;;;;7.90;3.65;;;;;;;20.92;30.57;95943.75;4991342;28;20200;-77
2023/10/10 12:11:16;;;;;;;10.38;3.95;;;;;;;21.12;30.58;95937.13;5198302;23;20749;-75
2023/10/10 12:13:44;;;;;;;9.77;3.75;;;;;;;20.68;30.96;95938.38;4959234;28;20031;-76
2023/10/10 12:16:12;;;;;;;7.25;3.85;;;;;;;20.85;30.66;95929.53;4972961;28;20046;-76
2023/10/10 12:18:49;;;;;;;7.93;3.50;;;;;;;21.18;31.16;95929.94;4974681;28;20035;-75
2023/10/10 12:21:19;;;;;;;9.32;3.55;;;;;;;19.19;34.43;95924.25;4952347;28;20055;-76
2023/10/10 12:23:47;;;;;;;8.80;4.13;;;;;;;21.69;30.20;95916.59;4961747;28;20086;-76
2023/10/10 12:28:48;;;;;;;10.18;3.50;;;;;;;24.20;27.96;95921.66;5038533;23;20069;-78
2023/10/10 12:31:16;;;;;;;7.38;3.97;;;;;;;25.58;26.01;95921.16;4964207;28;20042;-78
2023/10/10 12:33:49;;;;;;;8.18;3.67;;;;;;;25.42;24.51;95915.63;4957279;28;20026;-78
2023/10/10 12:36:17;;;;;;;10.10;3.95;;;;;;;27.80;23.17;95907.50;4956862;28;20118;-78
2023/10/10 12:38:44;;;;;;;5.47;3.67;;;;;;;27.83;22.06;95906.16;4925104;28;20035;-78
2023/10/10 12:41:11;;;;;;;6.90;3.72;;;;;;;26.61;22.51;95906.00;4938924;28;20119;-79
2023/10/10 12:43:37;;;;;;;9.88;3.80;;;;;;;26.47;22.51;95905.72;4955107;28;20112;-79
2023/10/10 12:46:04;;;;;;;6.20;3.75;;;;;;;30.31;19.43;95906.44;4932732;28;20082;-78
2023/10/10 12:48:31;;;;;;;6.63;3.33;;;;;;;32.27;17.62;95900.06;4960143;28;20031;-76
2023/10/10 12:51:00;;;;;;;5.30;3.17;;;;;;;33.06;16.74;95890.63;4941646;28;20508;-76
2023/10/10 12:53:30;;;;;;;6.20;3.38;;;;;;;33.64;16.28;95898.88;4935181;28;20108;-76
2023/10/10 12:56:01;;;;;;;5.82;3.55;;;;;;;34.06;15.04;95901.19;4948270;28;20052;-67
2023/10/10 12:58:27;;;;;;;7.25;3.38;;;;;;;34.58;15.13;95901.44;4949594;28;20035;-78
2023/10/10 13:00:53;;;;;;;6.78;3.65;;;;;;;32.96;15.31;95886.19;4952573;28;20093;-78
2023/10/10 13:03:28;;;;;;;6.68;3.60;;;;;;;33.02;15.41;95890.44;4934990;28;20468;-78
2023/10/10 13:06:00;;;;;;;5.85;3.50;;;;;;;34.02;15.34;95889.19;4917341;28;20069;-78
2023/10/10 13:08:38;;;;;;;7.28;3.58;;;;;;;35.86;12.82;95882.44;4915986;28;20031;-78
2023/10/10 13:11:14;;;;;;;7.47;3.40;;;;;;;36.63;12.79;95889.56;4952468;28;20062;-78
2023/10/10 13:13:46;;;;;;;6.10;3.58;;;;;;;36.18;13.49;95886.44;4950671;28;20045;-78
2023/10/10 13:19:06;;;;;;;8.25;3.30;;;;;;;37.84;12.14;95883.09;4931803;28;20046;-78
2023/10/10 13:21:35;;;;;;;6.03;3.28;;;;;;;38.72;12.29;95875.19;4935858;28;20031;-78
2023/10/10 13:24:00;;;;;;;5.85;3.20;;;;;;;39.14;11.56;95879.38;4902356;28;20420;-79
2023/10/10 13:26:27;;;;;;;8.23;3.42;;;;;;;37.75;12.47;95874.91;4932120;28;20038;-78
2023/10/10 13:28:53;;;;;;;7.70;3.35;;;;;;;37.29;12.67;95869.50;4946797;28;20038;-79
2023/10/10 13:31:18;;;;;;;9.70;3.67;;;;;;;39.64;11.33;95874.19;4930371;28;20043;-78
2023/10/10 13:33:44;;;;;;;8.23;3.50;;;;;;;39.07;11.09;95874.47;4954296;28;20065;-78
2023/10/10 13:36:15;;;;;;;7.15;3.40;;;;;;;39.59;11.62;95865.31;4955273;28;20047;-79
2023/10/10 13:38:50;;;;;;;7.57;3.40;;;;;;;39.76;11.60;95864.91;4917906;28;20042;-78
2023/10/10 13:41:19;;;;;;;7.73;3.33;;;;;;;40.06;10.72;95865.50;4947803;28;20047;-78
2023/10/10 13:43:47;;;;;;;6.32;3.40;;;;;;;36.35;12.84;95862.47;4951682;28;20051;-79
2023/10/10 13:46:13;;;;;;;8.05;3.38;;;;;;;38.75;11.29;95871.69;4956295;28;20039;-78
2023/10/10 13:48:39;;;;;;;8.32;3.60;;;;;;;39.56;11.26;95866.88;4945242;28;20502;-79
2023/10/10 13:51:07;;;;;;;7.38;3.00;;;;;;;39.95;10.76;95866.09;4952906;28;20039;-79
2023/10/10 13:53:33;;;;;;;6.10;3.70;;;;;;;38.68;11.00;95872.31;4935926;28;20097;-78
2023/10/10 13:56:00;;;;;;;8.88;3.30;;;;;;;36.36;13.26;95861.31;4951538;28;20598;-79
2023/10/10 13:58:25;;;;;;;5.88;3.42;;;;;;;38.05;11.72;95871.78;4961135;28;20097;-79
2023/10/10 14:00:55;;;;;;;8.27;3.40;;;;;;;39.51;10.27;95861.56;4941194;28;20038;-79
2023/10/10 14:03:28;;;;;;;5.60;3.25;;;;;;;39.35;10.55;95856.06;4959366;28;20297;-77
2023/10/10 14:06:16;;;;;;;9.38;3.55;;;;;;;40.09;10.57;95854.44;4934312;28;20050;-77
2023/10/10 14:08:44;;;;;;;8.65;3.55;;;;;;;38.82;10.67;95857.16;4941108;28;20046;-77
2023/10/10 14:11:10;;;;;;;6.00;3.22;;;;;;;39.53;10.25;95855.63;4953956;28;20038;-77
2023/10/10 14:13:35;;;;;;;7.28;3.33;;;;;;;38.78;11.59;95851.50;4919930;28;20440;-77
2023/10/10 14:16:01;;;;;;;9.35;3.35;;;;;;;40.07;10.77;95847.59;4933184;28;20038;-77
2023/10/10 14:18:42;;;;;;;7.75;3.53;;;;;;;41.31;10.26;95849.78;4950759;28;20150;-77
2023/10/10 14:21:08;;;;;;;6.80;3.50;;;;;;;42.00;8.71;95856.28;4948994;28;20459;-78
2023/10/10 14:23:35;;;;;;;6.38;3.50;;;;;;;41.56;9.54;95855.69;4934083;28;20038;-77
2023/10/10 14:26:12;;;;;;;7.45;3.65;;;;;;;40.93;10.19;95855.94;4952485;28;20055;-77
2023/10/10 14:28:41;;;;;;;5.35;3.20;;;;;;;40.30;10.31;95852.44;4935594;28;20126;-77
2023/10/10 14:31:13;;;;;;;8.88;3.20;;;;;;;41.68;9.46;95849.06;4935216;28;20555;-76
2023/10/10 14:33:39;;;;;;;6.85;3.10;;;;;;;42.13;9.36;95840.06;4949921;28;20035;-76